createdAt,value
2022-08-23T00:01:48.032Z,99578.13
2022-08-23T00:04:19.826Z,99575.41
2022-08-23T00:06:49.129Z,99587.34
2022-08-23T00:09:17.232Z,99578.66
2022-08-23T00:12:04.967Z,99580.59
2022-08-23T00:14:34.734Z,99587.94
2022-08-23T00:17:05.304Z,99579.22
2022-08-23T00:19:32.792Z,99578.69
2022-08-23T00:21:59.903Z,99577.84
2022-08-23T00:24:29.204Z,99569.44
2022-08-23T00:27:07.312Z,99576.78
2022-08-23T00:29:45.006Z,99570.25
2022-08-23T00:32:20.941Z,99553.13
2022-08-23T00:34:48.466Z,99566.69
2022-08-23T00:37:17.468Z,99558.25
2022-08-23T00:39:45.253Z,99556.09
2022-08-23T00:42:30.691Z,99559.06
2022-08-23T00:45:19.535Z,99558.50
2022-08-23T00:47:46.855Z,99562.03
2022-08-23T00:50:39.337Z,99562.06
2022-08-23T00:53:12.830Z,99567.50
2022-08-23T00:55:44.515Z,99563.94
2022-08-23T00:58:14.452Z,99557.72
2022-08-23T01:00:41.830Z,99562.84
2022-08-23T01:03:11.311Z,99562.84
2022-08-23T01:06:01.863Z,99563.66
2022-08-23T01:08:31.925Z,99571.00
2022-08-23T01:11:08.837Z,99562.84
2022-08-23T01:14:10.514Z,99558.22
2022-08-23T01:16:47.768Z,99560.66
2022-08-23T01:19:31.755Z,99569.06
2022-08-23T01:22:48.128Z,99565.81
2022-08-23T01:25:19.533Z,99579.38
2022-08-23T01:27:47.277Z,99566.59
2022-08-23T01:30:22.917Z,99573.91
2022-08-23T01:32:55.283Z,99578.78
2022-08-23T01:35:44.724Z,99572.00
2022-08-23T01:38:12.705Z,99586.63
2022-08-23T01:40:40.888Z,99582.28
2022-08-23T01:43:09.082Z,99579.28
2022-08-23T01:45:37.623Z,99581.19
2022-08-23T01:48:08.128Z,99572.50
2022-08-23T01:53:08.168Z,99579.56
2022-08-23T01:55:35.980Z,99576.28
2022-08-23T01:58:05.425Z,99577.94
2022-08-23T02:00:38.463Z,99569.78
2022-08-23T02:03:08.048Z,99571.34
2022-08-23T02:05:37.213Z,99567.03
2022-08-23T02:08:25.626Z,99572.44
2022-08-23T02:10:54.788Z,99569.44
2022-08-23T02:13:22.126Z,99575.94
2022-08-23T02:15:51.397Z,99569.16
2022-08-23T02:18:21.048Z,99567.78
2022-08-23T02:20:52.072Z,99564.78
2022-08-23T02:23:21.684Z,99575.63
2022-08-23T02:25:51.378Z,99571.53
2022-08-23T02:28:21.501Z,99586.19
2022-08-23T02:30:49.792Z,99582.94
2022-08-23T02:33:17.284Z,99596.22
2022-08-23T02:38:29.735Z,99573.94
2022-08-23T02:41:00.656Z,99580.19
2022-08-23T02:43:28.693Z,99583.47
2022-08-23T02:45:55.987Z,99582.09
2022-08-23T02:48:23.578Z,99593.19
2022-08-23T02:51:04.662Z,99600.25
2022-08-23T02:53:33.476Z,99599.47
2022-08-23T02:56:05.834Z,99607.34
2022-08-23T02:58:41.261Z,99605.44
2022-08-23T03:01:20.773Z,99602.19
2022-08-23T03:03:49.281Z,99591.34
2022-08-23T03:06:25.904Z,99605.41
2022-08-23T03:08:55.739Z,99587.47
2022-08-23T03:11:25.011Z,99607.53
2022-08-23T03:13:56.244Z,99604.56
2022-08-23T03:16:24.545Z,99608.59
2022-08-23T03:18:52.692Z,99592.84
2022-08-23T03:21:21.701Z,99606.38
2022-08-23T03:23:49.163Z,99605.25
2022-08-23T03:26:17.434Z,99611.19
2022-08-23T03:28:45.872Z,99612.28
2022-08-23T03:31:15.789Z,99618.47
2022-08-23T03:33:59.807Z,99617.38
2022-08-23T03:36:28.151Z,99616.25
2022-08-23T03:38:56.715Z,99621.13
2022-08-23T03:41:25.092Z,99616.16
2022-08-23T03:43:52.718Z,99621.22
2022-08-23T03:46:23.723Z,99625.00
2022-08-23T03:49:00.131Z,99630.91
2022-08-23T03:51:32.504Z,99626.78
2022-08-23T03:54:00.726Z,99627.81
2022-08-23T03:56:33.011Z,99622.31
2022-08-23T03:59:09.090Z,99628.28
2022-08-23T04:01:36.642Z,99622.00
2022-08-23T04:04:04.501Z,99621.19
2022-08-23T04:06:33.025Z,99620.91
2022-08-23T04:09:00.070Z,99631.41
2022-08-23T04:11:27.683Z,99628.97
2022-08-23T04:13:59.568Z,99628.69
2022-08-23T04:16:26.733Z,99630.00
2022-08-23T04:18:53.806Z,99643.78
2022-08-23T04:21:24.439Z,99643.22
2022-08-23T04:23:52.698Z,99641.00
2022-08-23T04:26:20.900Z,99646.16
2022-08-23T04:28:48.024Z,99648.31
2022-08-23T04:31:16.112Z,99648.06
2022-08-23T04:33:52.331Z,99652.66
2022-08-23T04:36:21.031Z,99652.66
2022-08-23T04:38:51.432Z,99668.59
2022-08-23T04:41:38.175Z,99662.38
2022-08-23T04:44:05.697Z,99658.59
2022-08-23T04:46:33.913Z,99656.97
2022-08-23T04:49:02.214Z,99660.97
2022-08-23T04:51:29.751Z,99658.28
2022-08-23T04:53:56.953Z,99665.31
2022-08-23T04:56:50.927Z,99670.50
2022-08-23T04:59:20.781Z,99665.09
2022-08-23T05:01:49.142Z,99676.72
2022-08-23T05:04:16.683Z,99677.03
2022-08-23T05:06:45.745Z,99681.63
2022-08-23T05:09:19.866Z,99678.63
2022-08-23T05:11:48.015Z,99685.06
2022-08-23T05:14:15.152Z,99689.44
2022-08-23T05:16:42.179Z,99688.31
2022-08-23T05:19:10.507Z,99690.75
2022-08-23T05:21:43.248Z,99700.75
2022-08-23T05:24:13.763Z,99694.84
2022-08-23T05:26:42.500Z,99703.53
2022-08-23T05:29:09.719Z,99707.88
2022-08-23T05:31:43.405Z,99708.94
2022-08-23T05:34:15.430Z,99710.59
2022-08-23T05:36:55.828Z,99714.66
2022-08-23T05:39:32.837Z,99718.22
2022-08-23T05:42:14.694Z,99717.69
2022-08-23T05:44:44.158Z,99719.06
2022-08-23T05:47:15.187Z,99718.25
2022-08-23T05:49:56.671Z,99719.88
2022-08-23T05:52:24.595Z,99724.00
2022-08-23T05:54:51.554Z,99722.66
2022-08-23T05:57:51.285Z,99724.63
2022-08-23T06:00:18.364Z,99733.63
2022-08-23T06:02:52.310Z,99730.75
2022-08-23T06:05:20.423Z,99731.63
2022-08-23T06:07:49.414Z,99736.84
2022-08-23T06:10:19.557Z,99740.19
2022-08-23T06:12:50.550Z,99738.41
2022-08-23T06:15:17.560Z,99750.13
2022-08-23T06:17:44.700Z,99744.50
2022-08-23T06:20:12.299Z,99744.28
2022-08-23T06:22:57.977Z,99747.06
2022-08-23T06:25:25.386Z,99748.97
2022-08-23T06:27:56.705Z,99756.63
2022-08-23T06:30:23.745Z,99761.03
2022-08-23T06:33:02.790Z,99756.47
2022-08-23T06:35:39.165Z,99755.44
2022-08-23T06:38:10.017Z,99754.16
2022-08-23T06:40:52.275Z,99756.50
2022-08-23T06:43:25.765Z,99759.25
2022-08-23T06:46:23.493Z,99766.31
2022-08-23T06:48:51.576Z,99761.78
2022-08-23T06:51:32.472Z,99766.16
2022-08-23T06:54:14.381Z,99765.97
2022-08-23T06:57:02.729Z,99766.31
2022-08-23T06:59:33.288Z,99764.16
2022-08-23T07:02:15.273Z,99766.13
2022-08-23T07:04:58.239Z,99772.44
2022-08-23T07:07:37.648Z,99768.66
2022-08-23T07:10:15.117Z,99769.50
2022-08-23T07:12:43.020Z,99771.66
2022-08-23T07:15:12.603Z,99779.88
2022-08-23T07:17:42.665Z,99785.03
2022-08-23T07:20:10.263Z,99791.84
2022-08-23T07:22:40.452Z,99784.78
2022-08-23T07:25:09.114Z,99790.75
2022-08-23T07:27:38.305Z,99794.09
2022-08-23T07:30:08.295Z,99788.63
2022-08-23T07:32:37.590Z,99793.00
2022-08-23T07:35:18.342Z,99796.25
2022-08-23T07:37:46.091Z,99795.44
2022-08-23T07:40:20.254Z,99788.09
2022-08-23T07:42:48.094Z,99795.72
2022-08-23T07:45:16.652Z,99794.59
2022-08-23T07:47:50.556Z,99797.31
2022-08-23T07:50:18.328Z,99795.66
2022-08-23T07:52:46.813Z,99796.19
2022-08-23T07:55:14.521Z,99806.81
2022-08-23T07:58:10.453Z,99812.47
2022-08-23T08:00:49.596Z,99808.88
2022-08-23T08:03:34.076Z,99811.59
2022-08-23T08:06:21.860Z,99815.38
2022-08-23T08:08:49.545Z,99819.66
2022-08-23T08:11:20.757Z,99818.03
2022-08-23T08:13:50.812Z,99822.59
2022-08-23T08:16:29.694Z,99825.84
2022-08-23T08:19:00.482Z,99833.16
2022-08-23T08:21:47.208Z,99823.00
2022-08-23T08:24:26.450Z,99823.50
2022-08-23T08:26:58.408Z,99825.06
2022-08-23T08:29:25.760Z,99815.19
2022-08-23T08:31:54.477Z,99829.88
2022-08-23T08:34:22.127Z,99825.50
2022-08-23T08:36:53.807Z,99829.75
2022-08-23T08:39:28.786Z,99829.66
2022-08-23T08:42:36.286Z,99830.38
2022-08-23T08:45:16.443Z,99832.44
2022-08-23T08:48:05.459Z,99834.31
2022-08-23T08:50:49.685Z,99836.66
2022-08-23T08:53:44.908Z,99837.91
2022-08-23T08:56:37.809Z,99841.56
2022-08-23T08:59:26.845Z,99829.38
2022-08-23T09:01:54.062Z,99833.47
2022-08-23T09:04:31.963Z,99835.03
2022-08-23T09:07:32.979Z,99836.63
2022-08-23T09:10:50.795Z,99836.25
2022-08-23T09:13:45.439Z,99840.44
2022-08-23T09:16:43.512Z,99836.81
2022-08-23T09:19:11.124Z,99834.09
2022-08-23T09:21:54.734Z,99829.63
2022-08-23T09:24:22.616Z,99832.81
2022-08-23T09:26:58.830Z,99821.78
2022-08-23T09:29:36.914Z,99829.16
2022-08-23T09:32:25.048Z,99836.97
2022-08-23T09:34:52.232Z,99830.28
2022-08-23T09:37:24.318Z,99830.19
2022-08-23T09:40:33.193Z,99829.00
2022-08-23T09:43:19.588Z,99832.97
2022-08-23T09:45:49.429Z,99825.47
2022-08-23T09:48:44.958Z,99832.16
2022-08-23T09:51:26.729Z,99825.72
2022-08-23T09:54:35.077Z,99831.22
2022-08-23T09:57:10.198Z,99823.06
2022-08-23T09:59:46.199Z,99826.22
2022-08-23T10:02:31.426Z,99817.47
2022-08-23T10:05:29.254Z,99824.06
2022-08-23T10:08:01.147Z,99813.09
2022-08-23T10:10:49.723Z,99818.69
2022-08-23T10:13:21.822Z,99812.06
2022-08-23T10:16:09.679Z,99810.84
2022-08-23T10:19:13.330Z,99807.88
2022-08-23T10:22:09.810Z,99804.31
2022-08-23T10:24:54.070Z,99800.41
2022-08-23T10:28:41.359Z,99802.81
2022-08-23T10:31:28.844Z,99797.00
2022-08-23T10:34:27.402Z,99797.97
2022-08-23T10:37:26.489Z,99793.19
2022-08-23T10:40:17.253Z,99791.28
2022-08-23T10:43:14.695Z,99784.22
2022-08-23T10:45:46.658Z,99787.59
2022-08-23T10:48:48.811Z,99781.66
2022-08-23T10:51:31.509Z,99779.81
2022-08-23T10:54:35.777Z,99783.22
2022-08-23T10:57:07.491Z,99773.38
2022-08-23T10:59:36.879Z,99773.06
2022-08-23T11:02:34.416Z,99771.19
2022-08-23T11:05:43.447Z,99766.81
2022-08-23T11:08:47.501Z,99768.19
2022-08-23T11:12:00.212Z,99758.47
2022-08-23T11:14:31.736Z,99763.00
2022-08-23T11:17:08.061Z,99763.84
2022-08-23T11:20:04.536Z,99763.31
2022-08-23T11:22:57.536Z,99758.59
2022-08-23T11:25:24.505Z,99752.72
2022-08-23T11:28:20.705Z,99754.78
2022-08-23T11:31:08.489Z,99749.78
2022-08-23T11:34:22.376Z,99750.41
2022-08-23T11:37:21.995Z,99746.69
2022-08-23T11:39:59.665Z,99748.47
2022-08-23T11:42:38.707Z,99751.22
2022-08-23T11:45:26.766Z,99751.06
2022-08-23T11:48:34.770Z,99752.81
2022-08-23T11:51:27.314Z,99750.03
2022-08-23T11:53:54.167Z,99750.69
2022-08-23T11:56:52.295Z,99739.88
2022-08-23T11:59:26.192Z,99747.38
2022-08-23T12:01:53.275Z,99746.66
2022-08-23T12:04:49.655Z,99742.22
2022-08-23T12:07:45.926Z,99742.22
2022-08-23T12:10:22.706Z,99738.94
2022-08-23T12:13:18.548Z,99734.78
2022-08-23T12:16:16.393Z,99739.69
2022-08-23T12:18:54.173Z,99721.22
2022-08-23T12:21:29.803Z,99725.44
2022-08-23T12:24:16.318Z,99725.78
2022-08-23T12:27:02.216Z,99721.03
2022-08-23T12:29:56.843Z,99726.88
2022-08-23T12:32:54.782Z,99732.09
2022-08-23T12:35:30.334Z,99724.44
2022-08-23T12:38:39.415Z,99721.69
2022-08-23T12:41:30.473Z,99715.25
2022-08-23T12:44:07.091Z,99726.38
2022-08-23T12:46:43.134Z,99723.13
2022-08-23T12:49:26.055Z,99722.50
2022-08-23T12:51:59.147Z,99724.34
2022-08-23T12:54:50.229Z,99723.25
2022-08-23T12:57:42.462Z,99722.72
2022-08-23T13:00:26.123Z,99715.34
2022-08-23T13:03:21.617Z,99716.47
2022-08-23T13:06:11.073Z,99721.03
2022-08-23T13:09:02.473Z,99699.75
2022-08-23T13:11:35.270Z,99712.41
2022-08-23T13:14:31.149Z,99703.59
2022-08-23T13:17:13.328Z,99704.06
2022-08-23T13:19:40.375Z,99702.44
2022-08-23T13:22:22.326Z,99706.69
2022-08-23T13:25:28.248Z,99708.31
2022-08-23T13:27:59.244Z,99711.91
2022-08-23T13:30:34.142Z,99694.34
2022-08-23T13:33:04.065Z,99691.84
2022-08-23T13:35:40.715Z,99697.84
2022-08-23T13:38:07.877Z,99704.72
2022-08-23T13:41:10.553Z,99695.97
2022-08-23T13:43:52.434Z,99697.06
2022-08-23T13:46:29.015Z,99697.91
2022-08-23T13:49:15.831Z,99693.88
2022-08-23T13:54:58.806Z,99689.75
2022-08-23T13:57:29.965Z,99680.97
2022-08-23T14:00:00.678Z,99675.56
2022-08-23T14:02:29.409Z,99688.53
2022-08-23T14:04:56.434Z,99687.41
2022-08-23T14:07:23.474Z,99677.50
2022-08-23T14:09:54.868Z,99683.84
2022-08-23T14:12:27.881Z,99684.09
2022-08-23T14:14:57.400Z,99691.34
2022-08-23T14:17:25.482Z,99683.38
2022-08-23T14:20:32.589Z,99676.81
2022-08-23T14:22:40.452Z,99676.00
2022-08-23T14:25:08.841Z,99673.34
2022-08-23T14:27:38.529Z,99676.78
2022-08-23T14:30:07.023Z,99673.59
2022-08-23T14:32:34.872Z,99676.94
2022-08-23T14:35:01.908Z,99668.94
2022-08-23T14:40:17.029Z,99671.25
2022-08-23T14:42:45.783Z,99680.72
2022-08-23T14:45:15.081Z,99669.41
2022-08-23T14:47:42.607Z,99672.44
2022-08-23T14:50:13.185Z,99667.34
2022-08-23T14:52:45.767Z,99666.78
2022-08-23T14:55:17.076Z,99669.59
2022-08-23T14:57:44.202Z,99669.78
2022-08-23T15:00:15.316Z,99671.63
2022-08-23T15:02:45.861Z,99666.50
2022-08-23T15:05:14.433Z,99661.53
2022-08-23T15:07:41.906Z,99668.72
2022-08-23T15:10:49.295Z,99656.47
2022-08-23T15:13:02.301Z,99665.84
2022-08-23T15:15:43.055Z,99660.00
2022-08-23T15:18:10.427Z,99667.75
2022-08-23T15:20:38.843Z,99654.09
2022-08-23T15:23:08.013Z,99652.00
2022-08-23T15:25:40.019Z,99655.25
2022-08-23T15:28:13.022Z,99656.75
2022-08-23T15:30:42.619Z,99649.97
2022-08-23T15:33:10.788Z,99653.53
2022-08-23T15:35:44.469Z,99657.09
2022-08-23T15:38:13.834Z,99657.19
2022-08-23T15:40:41.188Z,99656.53
2022-08-23T15:43:08.805Z,99656.53
2022-08-23T15:45:36.323Z,99656.41
2022-08-23T15:48:16.228Z,99650.41
2022-08-23T15:50:46.459Z,99650.06
2022-08-23T15:53:14.609Z,99651.44
2022-08-23T15:55:43.770Z,99651.94
2022-08-23T15:58:18.239Z,99653.19
2022-08-23T16:00:45.707Z,99648.44
2022-08-23T16:03:18.763Z,99655.00
2022-08-23T16:06:02.994Z,99646.03
2022-08-23T16:08:38.169Z,99649.16
2022-08-23T16:11:12.028Z,99642.84
2022-08-23T16:13:49.711Z,99642.38
2022-08-23T16:16:31.171Z,99641.75
2022-08-23T16:18:59.852Z,99645.66
2022-08-23T16:21:29.603Z,99642.66
2022-08-23T16:23:57.480Z,99643.41
2022-08-23T16:26:38.475Z,99648.56
2022-08-23T16:29:13.387Z,99644.97
2022-08-23T16:31:41.711Z,99637.25
2022-08-23T16:34:12.773Z,99650.38
2022-08-23T16:36:44.749Z,99642.41
2022-08-23T16:39:13.643Z,99641.69
2022-08-23T16:41:40.782Z,99648.38
2022-08-23T16:44:07.853Z,99645.41
2022-08-23T16:46:36.612Z,99651.31
2022-08-23T16:49:04.121Z,99644.19
2022-08-23T16:51:31.137Z,99643.75
2022-08-23T16:54:02.537Z,99648.81
2022-08-23T16:56:32.311Z,99650.78
2022-08-23T16:58:59.660Z,99656.84
2022-08-23T17:01:27.801Z,99647.00
2022-08-23T17:03:55.344Z,99653.63
2022-08-23T17:06:22.747Z,99652.66
2022-08-23T17:08:49.837Z,99648.50
2022-08-23T17:11:19.672Z,99657.81
2022-08-23T17:13:46.573Z,99649.06
2022-08-23T17:16:13.695Z,99649.81
2022-08-23T17:18:40.931Z,99653.09
2022-08-23T17:21:09.069Z,99649.41
2022-08-23T17:23:40.356Z,99642.94
2022-08-23T17:26:09.436Z,99654.75
2022-08-23T17:28:36.634Z,99656.38
2022-08-23T17:31:03.666Z,99657.81
2022-08-23T17:33:30.804Z,99656.19
2022-08-23T17:35:58.058Z,99663.25
2022-08-23T17:38:25.006Z,99657.91
2022-08-23T17:40:52.403Z,99662.31
2022-08-23T17:43:19.392Z,99661.97
2022-08-23T17:45:49.920Z,99668.13
2022-08-23T17:48:20.670Z,99668.00
2022-08-23T17:50:48.909Z,99665.41
2022-08-23T17:53:17.651Z,99668.81
2022-08-23T17:55:44.724Z,99676.63
2022-08-23T17:58:12.101Z,99680.53
2022-08-23T18:00:39.724Z,99682.31
2022-08-23T18:03:06.931Z,99684.44
2022-08-23T18:05:37.041Z,99693.97
2022-08-23T18:08:04.415Z,99692.84
2022-08-23T18:10:31.479Z,99691.53
2022-08-23T18:12:58.760Z,99691.34
2022-08-23T18:15:30.045Z,99694.84
2022-08-23T18:18:00.379Z,99695.44
2022-08-23T18:20:28.658Z,99688.94
2022-08-23T18:22:57.726Z,99696.34
2022-08-23T18:25:25.953Z,99701.09
2022-08-23T18:28:09.803Z,99697.84
2022-08-23T18:30:48.641Z,99703.53
2022-08-23T18:33:19.084Z,99709.31
2022-08-23T18:35:47.648Z,99708.44
2022-08-23T18:38:15.924Z,99706.28
2022-08-23T18:40:46.097Z,99711.19
2022-08-23T18:43:16.879Z,99721.31
2022-08-23T18:45:49.503Z,99715.69
2022-08-23T18:48:17.720Z,99724.25
2022-08-23T18:50:45.196Z,99729.16
2022-08-23T18:53:13.253Z,99732.34
2022-08-23T18:55:42.078Z,99728.56
2022-08-23T18:58:09.454Z,99733.66
2022-08-23T19:00:38.132Z,99736.50
2022-08-23T19:03:06.627Z,99742.63
2022-08-23T19:05:40.046Z,99745.47
2022-08-23T19:08:11.750Z,99744.44
2022-08-23T19:10:41.284Z,99743.16
2022-08-23T19:13:10.038Z,99755.56
2022-08-23T19:15:40.475Z,99754.22
2022-08-23T19:18:08.410Z,99766.59
2022-08-23T19:20:37.509Z,99762.00
2022-08-23T19:23:04.686Z,99765.16
2022-08-23T19:25:33.869Z,99764.66
2022-08-23T19:28:00.836Z,99766.38
2022-08-23T19:30:28.327Z,99762.63
2022-08-23T19:32:56.631Z,99766.56
2022-08-23T19:35:24.122Z,99766.34
2022-08-23T19:37:51.121Z,99770.53
2022-08-23T19:40:18.849Z,99769.00
2022-08-23T19:42:46.129Z,99777.78
2022-08-23T19:45:13.366Z,99774.47
2022-08-23T19:47:40.722Z,99775.47
2022-08-23T19:50:09.960Z,99778.75
2022-08-23T19:52:37.852Z,99776.31
2022-08-23T19:55:07.413Z,99780.16
2022-08-23T19:57:37.158Z,99774.88
2022-08-23T20:00:18.484Z,99778.44
2022-08-23T20:02:47.307Z,99775.69
2022-08-23T20:05:14.887Z,99782.59
2022-08-23T20:07:42.225Z,99783.19
2022-08-23T20:10:11.220Z,99790.09
2022-08-23T20:12:41.600Z,99790.09
2022-08-23T20:15:13.543Z,99794.78
2022-08-23T20:17:41.484Z,99801.75
2022-08-23T20:20:11.460Z,99805.31
2022-08-23T20:22:56.848Z,99806.19
2022-08-23T20:25:24.356Z,99804.88
2022-08-23T20:27:51.355Z,99804.88
2022-08-23T20:30:18.403Z,99816.94
2022-08-23T20:32:45.438Z,99809.56
2022-08-23T20:35:12.673Z,99817.03
2022-08-23T20:37:39.725Z,99815.69
2022-08-23T20:40:14.373Z,99812.16
2022-08-23T20:42:41.571Z,99815.16
2022-08-23T20:45:09.326Z,99816.59
2022-08-23T20:47:36.544Z,99813.69
2022-08-23T20:50:04.387Z,99811.25
2022-08-23T20:52:34.543Z,99813.56
2022-08-23T20:55:02.703Z,99811.34
2022-08-23T20:57:32.035Z,99811.13
2022-08-23T21:00:07.664Z,99815.88
2022-08-23T21:02:34.981Z,99819.50
2022-08-23T21:05:01.935Z,99817.88
2022-08-23T21:07:33.233Z,99826.88
2022-08-23T21:10:00.239Z,99823.34
2022-08-23T21:12:27.406Z,99820.41
2022-08-23T21:14:56.640Z,99830.53
2022-08-23T21:17:23.811Z,99827.19
2022-08-23T21:19:50.822Z,99827.88
2022-08-23T21:22:17.919Z,99833.66
2022-08-23T21:24:45.512Z,99828.25
2022-08-23T21:27:12.563Z,99833.72
2022-08-23T21:29:39.658Z,99833.16
2022-08-23T21:32:07.322Z,99833.78
2022-08-23T21:34:34.630Z,99827.84
2022-08-23T21:37:01.586Z,99827.63
2022-08-23T21:39:28.599Z,99842.41
2022-08-23T21:41:56.747Z,99831.75
2022-08-23T21:44:25.689Z,99828.75
2022-08-23T21:46:52.849Z,99834.25
2022-08-23T21:49:20.936Z,99829.66
2022-08-23T21:51:49.095Z,99830.53
2022-08-23T21:54:18.181Z,99834.69
2022-08-23T21:56:45.938Z,99827.06
2022-08-23T21:59:16.972Z,99828.69
2022-08-23T22:01:45.054Z,99827.41
2022-08-23T22:04:14.602Z,99825.84
2022-08-23T22:06:46.057Z,99828.94
2022-08-23T22:09:17.875Z,99822.94
2022-08-23T22:11:46.837Z,99824.06
2022-08-23T22:14:23.017Z,99829.06
2022-08-23T22:16:55.188Z,99825.81
2022-08-23T22:19:23.007Z,99830.75
2022-08-23T22:21:51.877Z,99816.03
2022-08-23T22:24:25.199Z,99823.94
2022-08-23T22:26:52.654Z,99821.78
2022-08-23T22:29:19.637Z,99822.88
2022-08-23T22:31:48.810Z,99817.72
2022-08-23T22:34:15.933Z,99827.06
2022-08-23T22:36:42.966Z,99821.34
2022-08-23T22:39:10.363Z,99820.31
2022-08-23T22:41:38.184Z,99811.84
2022-08-23T22:44:05.995Z,99811.03
2022-08-23T22:46:34.776Z,99807.50
2022-08-23T22:49:01.891Z,99806.47
2022-08-23T22:51:34.521Z,99805.41
2022-08-23T22:54:08.938Z,99815.25
2022-08-23T22:56:46.635Z,99816.91
2022-08-23T22:59:16.111Z,99810.91
2022-08-23T23:01:48.334Z,99810.97
2022-08-23T23:04:19.007Z,99810.44
2022-08-23T23:06:47.804Z,99807.75
2022-08-23T23:09:15.538Z,99814.88
2022-08-23T23:11:43.684Z,99805.34
2022-08-23T23:14:12.358Z,99813.06
2022-08-23T23:16:40.384Z,99814.50
2022-08-23T23:19:26.451Z,99805.78
2022-08-23T23:21:57.237Z,99805.59
2022-08-23T23:24:36.168Z,99816.53
2022-08-23T23:27:04.118Z,99816.81
2022-08-23T23:29:32.366Z,99815.44
2022-08-23T23:31:59.953Z,99819.06
2022-08-23T23:34:28.190Z,99817.16
2022-08-23T23:36:56.999Z,99819.41
2022-08-23T23:39:25.306Z,99818.03
2022-08-23T23:41:52.342Z,99821.38
2022-08-23T23:44:29.931Z,99823.06
2022-08-23T23:47:01.201Z,99827.97
2022-08-23T23:49:31.989Z,99830.75
2022-08-23T23:52:03.156Z,99831.88
2022-08-23T23:54:31.448Z,99829.16
2022-08-23T23:56:58.598Z,99828.66
2022-08-23T23:59:26.173Z,99821.31
